sensor_id;sensor_type;location;lat;lon;timestamp;P1;durP1;ratioP1;P2;durP2;ratioP2
4754;SDS011;2391;47.212;7.542;2023-07-22T00:01:25;1.77;;;1.67;;
4754;SDS011;2391;47.212;7.542;2023-07-22T00:03:51;3.03;;;1.63;;
4754;SDS011;2391;47.212;7.542;2023-07-22T00:06:17;2.17;;;1.33;;
4754;SDS011;2391;47.212;7.542;2023-07-22T00:08:42;1.40;;;1.30;;
4754;SDS011;2391;47.212;7.542;2023-07-22T00:11:08;1.33;;;1.10;;
4754;SDS011;2391;47.212;7.542;2023-07-22T00:13:35;1.20;;;1.10;;
4754;SDS011;2391;47.212;7.542;2023-07-22T00:16:00;3.43;;;1.37;;
4754;SDS011;2391;47.212;7.542;2023-07-22T00:18:29;1.30;;;1.20;;
4754;SDS011;2391;47.212;7.542;2023-07-22T00:20:56;1.20;;;1.10;;
4754;SDS011;2391;47.212;7.542;2023-07-22T00:23:22;1.93;;;1.20;;
4754;SDS011;2391;47.212;7.542;2023-07-22T00:25:48;2.00;;;1.50;;
4754;SDS011;2391;47.212;7.542;2023-07-22T00:28:14;1.77;;;1.17;;
4754;SDS011;2391;47.212;7.542;2023-07-22T00:30:41;1.30;;;1.20;;
4754;SDS011;2391;47.212;7.542;2023-07-22T00:33:07;2.50;;;1.20;;
4754;SDS011;2391;47.212;7.542;2023-07-22T00:35:34;1.93;;;1.83;;
4754;SDS011;2391;47.212;7.542;2023-07-22T00:38:00;2.53;;;1.40;;
4754;SDS011;2391;47.212;7.542;2023-07-22T00:40:26;1.20;;;1.10;;
4754;SDS011;2391;47.212;7.542;2023-07-22T00:42:52;1.30;;;1.20;;
4754;SDS011;2391;47.212;7.542;2023-07-22T00:45:18;2.37;;;1.47;;
4754;SDS011;2391;47.212;7.542;2023-07-22T00:47:44;2.83;;;1.37;;
4754;SDS011;2391;47.212;7.542;2023-07-22T00:50:10;2.60;;;1.30;;
4754;SDS011;2391;47.212;7.542;2023-07-22T00:52:37;1.30;;;1.10;;
4754;SDS011;2391;47.212;7.542;2023-07-22T00:55:04;1.20;;;1.10;;
4754;SDS011;2391;47.212;7.542;2023-07-22T00:57:30;5.57;;;1.20;;
4754;SDS011;2391;47.212;7.542;2023-07-22T00:59:56;1.20;;;1.10;;
4754;SDS011;2391;47.212;7.542;2023-07-22T01:02:22;1.50;;;1.40;;
4754;SDS011;2391;47.212;7.542;2023-07-22T01:04:49;2.30;;;0.90;;
4754;SDS011;2391;47.212;7.542;2023-07-22T01:07:17;5.33;;;1.30;;
4754;SDS011;2391;47.212;7.542;2023-07-22T01:09:43;2.03;;;1.30;;
4754;SDS011;2391;47.212;7.542;2023-07-22T01:12:10;6.93;;;1.93;;
4754;SDS011;2391;47.212;7.542;2023-07-22T01:14:37;1.40;;;1.30;;
4754;SDS011;2391;47.212;7.542;2023-07-22T01:17:05;1.73;;;1.63;;
4754;SDS011;2391;47.212;7.542;2023-07-22T01:19:32;2.23;;;1.20;;
4754;SDS011;2391;47.212;7.542;2023-07-22T01:22:03;6.47;;;1.50;;
4754;SDS011;2391;47.212;7.542;2023-07-22T01:24:32;2.03;;;1.37;;
4754;SDS011;2391;47.212;7.542;2023-07-22T01:26:58;2.67;;;1.23;;
4754;SDS011;2391;47.212;7.542;2023-07-22T01:29:23;3.37;;;2.03;;
4754;SDS011;2391;47.212;7.542;2023-07-22T01:31:53;1.57;;;1.30;;
4754;SDS011;2391;47.212;7.542;2023-07-22T01:34:20;4.27;;;1.10;;
4754;SDS011;2391;47.212;7.542;2023-07-22T01:36:47;1.50;;;1.40;;
4754;SDS011;2391;47.212;7.542;2023-07-22T01:39:14;2.00;;;1.33;;
4754;SDS011;2391;47.212;7.542;2023-07-22T01:41:40;1.67;;;1.57;;
4754;SDS011;2391;47.212;7.542;2023-07-22T01:44:06;1.63;;;1.30;;
4754;SDS011;2391;47.212;7.542;2023-07-22T01:46:33;3.43;;;1.40;;
4754;SDS011;2391;47.212;7.542;2023-07-22T01:48:59;1.60;;;1.33;;
4754;SDS011;2391;47.212;7.542;2023-07-22T01:51:24;1.63;;;1.53;;
4754;SDS011;2391;47.212;7.542;2023-07-22T01:53:51;1.23;;;1.13;;
4754;SDS011;2391;47.212;7.542;2023-07-22T01:56:17;3.70;;;1.33;;
4754;SDS011;2391;47.212;7.542;2023-07-22T01:58:42;2.13;;;1.30;;
4754;SDS011;2391;47.212;7.542;2023-07-22T02:01:08;1.20;;;1.10;;
4754;SDS011;2391;47.212;7.542;2023-07-22T02:03:34;1.50;;;1.40;;
4754;SDS011;2391;47.212;7.542;2023-07-22T02:06:06;1.60;;;1.50;;
4754;SDS011;2391;47.212;7.542;2023-07-22T02:08:32;2.43;;;1.47;;
4754;SDS011;2391;47.212;7.542;2023-07-22T02:11:05;3.70;;;1.30;;
4754;SDS011;2391;47.212;7.542;2023-07-22T02:13:29;1.33;;;1.23;;
4754;SDS011;2391;47.212;7.542;2023-07-22T02:15:56;2.90;;;1.20;;
4754;SDS011;2391;47.212;7.542;2023-07-22T02:18:21;1.40;;;1.30;;
4754;SDS011;2391;47.212;7.542;2023-07-22T02:20:47;3.50;;;1.50;;
4754;SDS011;2391;47.212;7.542;2023-07-22T02:23:13;2.40;;;1.30;;
4754;SDS011;2391;47.212;7.542;2023-07-22T02:25:39;2.97;;;1.50;;
4754;SDS011;2391;47.212;7.542;2023-07-22T02:28:05;1.57;;;1.47;;
4754;SDS011;2391;47.212;7.542;2023-07-22T02:30:34;1.47;;;1.23;;
4754;SDS011;2391;47.212;7.542;2023-07-22T02:33:01;2.07;;;1.27;;
4754;SDS011;2391;47.212;7.542;2023-07-22T02:35:30;1.43;;;1.33;;
4754;SDS011;2391;47.212;7.542;2023-07-22T02:37:56;1.73;;;1.63;;
4754;SDS011;2391;47.212;7.542;2023-07-22T02:40:22;2.07;;;1.70;;
4754;SDS011;2391;47.212;7.542;2023-07-22T02:42:47;3.57;;;1.50;;
4754;SDS011;2391;47.212;7.542;2023-07-22T02:45:13;1.60;;;1.40;;
4754;SDS011;2391;47.212;7.542;2023-07-22T02:47:39;1.17;;;1.07;;
4754;SDS011;2391;47.212;7.542;2023-07-22T02:50:08;2.10;;;1.40;;
4754;SDS011;2391;47.212;7.542;2023-07-22T02:52:34;1.37;;;1.27;;
4754;SDS011;2391;47.212;7.542;2023-07-22T02:55:11;2.43;;;1.20;;
4754;SDS011;2391;47.212;7.542;2023-07-22T02:57:39;2.20;;;1.50;;
4754;SDS011;2391;47.212;7.542;2023-07-22T03:00:06;1.70;;;1.60;;
4754;SDS011;2391;47.212;7.542;2023-07-22T03:02:37;1.37;;;1.27;;
4754;SDS011;2391;47.212;7.542;2023-07-22T03:05:01;1.57;;;1.40;;
4754;SDS011;2391;47.212;7.542;2023-07-22T03:07:30;2.13;;;1.40;;
4754;SDS011;2391;47.212;7.542;2023-07-22T03:09:56;1.93;;;1.30;;
4754;SDS011;2391;47.212;7.542;2023-07-22T03:12:22;3.83;;;1.47;;
4754;SDS011;2391;47.212;7.542;2023-07-22T03:14:47;1.97;;;1.50;;
4754;SDS011;2391;47.212;7.542;2023-07-22T03:17:14;1.57;;;1.47;;
4754;SDS011;2391;47.212;7.542;2023-07-22T03:19:41;1.33;;;1.23;;
4754;SDS011;2391;47.212;7.542;2023-07-22T03:22:07;1.67;;;1.57;;
4754;SDS011;2391;47.212;7.542;2023-07-22T03:24:33;2.40;;;1.60;;
4754;SDS011;2391;47.212;7.542;2023-07-22T03:26:58;1.50;;;1.40;;
4754;SDS011;2391;47.212;7.542;2023-07-22T03:29:24;1.70;;;1.37;;
4754;SDS011;2391;47.212;7.542;2023-07-22T03:31:50;2.27;;;1.23;;
4754;SDS011;2391;47.212;7.542;2023-07-22T03:34:16;1.63;;;1.30;;
4754;SDS011;2391;47.212;7.542;2023-07-22T03:36:41;3.87;;;1.43;;
4754;SDS011;2391;47.212;7.542;2023-07-22T03:39:07;2.10;;;1.50;;
4754;SDS011;2391;47.212;7.542;2023-07-22T03:41:33;2.30;;;1.70;;
4754;SDS011;2391;47.212;7.542;2023-07-22T03:43:59;3.00;;;1.53;;
4754;SDS011;2391;47.212;7.542;2023-07-22T03:46:25;1.20;;;1.10;;
4754;SDS011;2391;47.212;7.542;2023-07-22T03:48:50;2.07;;;1.47;;
4754;SDS011;2391;47.212;7.542;2023-07-22T03:51:16;1.37;;;1.20;;
4754;SDS011;2391;47.212;7.542;2023-07-22T03:53:42;1.63;;;1.53;;
4754;SDS011;2391;47.212;7.542;2023-07-22T03:56:08;1.50;;;1.33;;
4754;SDS011;2391;47.212;7.542;2023-07-22T03:58:34;1.53;;;1.43;;
4754;SDS011;2391;47.212;7.542;2023-07-22T04:01:00;2.33;;;1.50;;
4754;SDS011;2391;47.212;7.542;2023-07-22T04:03:25;1.50;;;1.30;;
4754;SDS011;2391;47.212;7.542;2023-07-22T04:05:54;1.53;;;1.30;;
4754;SDS011;2391;47.212;7.542;2023-07-22T04:08:23;2.30;;;1.57;;
4754;SDS011;2391;47.212;7.542;2023-07-22T04:10:56;1.67;;;1.57;;
4754;SDS011;2391;47.212;7.542;2023-07-22T04:13:23;2.53;;;1.47;;
4754;SDS011;2391;47.212;7.542;2023-07-22T04:15:50;3.17;;;1.13;;
4754;SDS011;2391;47.212;7.542;2023-07-22T04:18:16;1.63;;;1.37;;
4754;SDS011;2391;47.212;7.542;2023-07-22T04:20:43;1.40;;;1.30;;
4754;SDS011;2391;47.212;7.542;2023-07-22T04:23:09;2.30;;;1.40;;
4754;SDS011;2391;47.212;7.542;2023-07-22T04:25:39;1.60;;;1.50;;
4754;SDS011;2391;47.212;7.542;2023-07-22T04:28:06;2.17;;;1.30;;
4754;SDS011;2391;47.212;7.542;2023-07-22T04:30:33;2.80;;;1.40;;
4754;SDS011;2391;47.212;7.542;2023-07-22T04:33:03;1.43;;;1.33;;
4754;SDS011;2391;47.212;7.542;2023-07-22T04:35:31;3.70;;;1.33;;
4754;SDS011;2391;47.212;7.542;2023-07-22T04:37:58;2.53;;;2.03;;
4754;SDS011;2391;47.212;7.542;2023-07-22T04:40:24;1.67;;;1.57;;
4754;SDS011;2391;47.212;7.542;2023-07-22T04:42:51;3.23;;;1.27;;
4754;SDS011;2391;47.212;7.542;2023-07-22T04:45:16;1.50;;;1.40;;
4754;SDS011;2391;47.212;7.542;2023-07-22T04:47:43;1.70;;;1.60;;
4754;SDS011;2391;47.212;7.542;2023-07-22T04:50:11;1.83;;;1.73;;
4754;SDS011;2391;47.212;7.542;2023-07-22T04:52:37;1.33;;;1.23;;
4754;SDS011;2391;47.212;7.542;2023-07-22T04:55:03;1.30;;;1.20;;
4754;SDS011;2391;47.212;7.542;2023-07-22T04:57:31;2.60;;;2.13;;
4754;SDS011;2391;47.212;7.542;2023-07-22T04:59:56;2.80;;;1.53;;
4754;SDS011;2391;47.212;7.542;2023-07-22T05:02:22;1.37;;;1.27;;
4754;SDS011;2391;47.212;7.542;2023-07-22T05:04:48;5.63;;;1.20;;
4754;SDS011;2391;47.212;7.542;2023-07-22T05:07:14;3.33;;;2.03;;
4754;SDS011;2391;47.212;7.542;2023-07-22T05:09:39;2.27;;;1.50;;
4754;SDS011;2391;47.212;7.542;2023-07-22T05:12:05;3.33;;;1.40;;
4754;SDS011;2391;47.212;7.542;2023-07-22T05:14:31;2.10;;;1.90;;
4754;SDS011;2391;47.212;7.542;2023-07-22T05:16:57;1.73;;;1.30;;
4754;SDS011;2391;47.212;7.542;2023-07-22T05:19:23;1.80;;;1.70;;
4754;SDS011;2391;47.212;7.542;2023-07-22T05:21:48;2.03;;;1.83;;
4754;SDS011;2391;47.212;7.542;2023-07-22T05:24:14;2.63;;;2.07;;
4754;SDS011;2391;47.212;7.542;2023-07-22T05:26:40;3.30;;;2.07;;
4754;SDS011;2391;47.212;7.542;2023-07-22T05:29:06;1.67;;;1.57;;
4754;SDS011;2391;47.212;7.542;2023-07-22T05:31:33;2.40;;;1.90;;
4754;SDS011;2391;47.212;7.542;2023-07-22T05:33:58;3.00;;;1.70;;
4754;SDS011;2391;47.212;7.542;2023-07-22T05:36:24;4.40;;;1.97;;
4754;SDS011;2391;47.212;7.542;2023-07-22T05:38:50;1.97;;;1.87;;
4754;SDS011;2391;47.212;7.542;2023-07-22T05:41:16;4.20;;;1.70;;
4754;SDS011;2391;47.212;7.542;2023-07-22T05:43:42;1.70;;;1.60;;
4754;SDS011;2391;47.212;7.542;2023-07-22T05:46:07;6.13;;;1.70;;
4754;SDS011;2391;47.212;7.542;2023-07-22T05:48:33;2.33;;;1.67;;
4754;SDS011;2391;47.212;7.542;2023-07-22T05:50:59;1.90;;;1.80;;
4754;SDS011;2391;47.212;7.542;2023-07-22T05:53:24;2.20;;;2.00;;
4754;SDS011;2391;47.212;7.542;2023-07-22T05:55:54;2.73;;;1.73;;
4754;SDS011;2391;47.212;7.542;2023-07-22T05:58:19;2.30;;;2.10;;
4754;SDS011;2391;47.212;7.542;2023-07-22T06:00:45;1.97;;;1.87;;
4754;SDS011;2391;47.212;7.542;2023-07-22T06:03:12;2.60;;;2.13;;
4754;SDS011;2391;47.212;7.542;2023-07-22T06:05:38;4.07;;;2.50;;
4754;SDS011;2391;47.212;7.542;2023-07-22T06:08:04;3.70;;;2.27;;
4754;SDS011;2391;47.212;7.542;2023-07-22T06:10:30;2.20;;;1.93;;
4754;SDS011;2391;47.212;7.542;2023-07-22T06:12:57;2.27;;;1.90;;
4754;SDS011;2391;47.212;7.542;2023-07-22T06:15:23;6.03;;;2.00;;
4754;SDS011;2391;47.212;7.542;2023-07-22T06:17:48;2.40;;;1.70;;
4754;SDS011;2391;47.212;7.542;2023-07-22T06:20:14;3.00;;;1.83;;
4754;SDS011;2391;47.212;7.542;2023-07-22T06:22:40;3.33;;;2.10;;
4754;SDS011;2391;47.212;7.542;2023-07-22T06:25:06;1.80;;;1.70;;
4754;SDS011;2391;47.212;7.542;2023-07-22T06:27:32;1.90;;;1.80;;
4754;SDS011;2391;47.212;7.542;2023-07-22T06:29:59;3.20;;;2.40;;
4754;SDS011;2391;47.212;7.542;2023-07-22T06:32:25;3.40;;;2.10;;
4754;SDS011;2391;47.212;7.542;2023-07-22T06:34:50;2.87;;;1.87;;
4754;SDS011;2391;47.212;7.542;2023-07-22T06:37:16;3.67;;;2.00;;
4754;SDS011;2391;47.212;7.542;2023-07-22T06:39:42;3.07;;;2.13;;
4754;SDS011;2391;47.212;7.542;2023-07-22T06:42:07;6.40;;;1.90;;
4754;SDS011;2391;47.212;7.542;2023-07-22T06:44:33;3.77;;;2.20;;
4754;SDS011;2391;47.212;7.542;2023-07-22T06:46:59;3.30;;;2.30;;
4754;SDS011;2391;47.212;7.542;2023-07-22T06:49:24;2.00;;;1.80;;
4754;SDS011;2391;47.212;7.542;2023-07-22T06:51:50;1.97;;;1.70;;
4754;SDS011;2391;47.212;7.542;2023-07-22T06:54:17;3.43;;;1.97;;
4754;SDS011;2391;47.212;7.542;2023-07-22T06:56:42;2.20;;;1.70;;
4754;SDS011;2391;47.212;7.542;2023-07-22T06:59:08;4.83;;;2.27;;
4754;SDS011;2391;47.212;7.542;2023-07-22T07:01:34;2.57;;;2.37;;
4754;SDS011;2391;47.212;7.542;2023-07-22T07:03:59;2.20;;;1.80;;
4754;SDS011;2391;47.212;7.542;2023-07-22T07:06:25;1.93;;;1.73;;
4754;SDS011;2391;47.212;7.542;2023-07-22T07:08:51;1.77;;;1.67;;
4754;SDS011;2391;47.212;7.542;2023-07-22T07:11:17;3.83;;;2.00;;
4754;SDS011;2391;47.212;7.542;2023-07-22T07:13:46;2.97;;;2.13;;
4754;SDS011;2391;47.212;7.542;2023-07-22T07:18:50;1.63;;;1.53;;
4754;SDS011;2391;47.212;7.542;2023-07-22T07:21:17;2.10;;;2.00;;
4754;SDS011;2391;47.212;7.542;2023-07-22T07:23:44;3.93;;;1.80;;
4754;SDS011;2391;47.212;7.542;2023-07-22T07:26:10;4.83;;;1.50;;
4754;SDS011;2391;47.212;7.542;2023-07-22T07:28:36;2.00;;;1.90;;
4754;SDS011;2391;47.212;7.542;2023-07-22T07:31:02;2.43;;;1.93;;
4754;SDS011;2391;47.212;7.542;2023-07-22T07:33:28;3.17;;;2.00;;
4754;SDS011;2391;47.212;7.542;2023-07-22T07:35:54;2.40;;;2.10;;
4754;SDS011;2391;47.212;7.542;2023-07-22T07:38:19;2.10;;;1.87;;
4754;SDS011;2391;47.212;7.542;2023-07-22T07:40:45;2.33;;;1.80;;
4754;SDS011;2391;47.212;7.542;2023-07-22T07:43:11;1.83;;;1.60;;
4754;SDS011;2391;47.212;7.542;2023-07-22T07:45:38;3.67;;;2.00;;
4754;SDS011;2391;47.212;7.542;2023-07-22T07:48:05;3.87;;;2.20;;
4754;SDS011;2391;47.212;7.542;2023-07-22T07:50:32;1.87;;;1.77;;
4754;SDS011;2391;47.212;7.542;2023-07-22T07:52:58;2.50;;;1.70;;
4754;SDS011;2391;47.212;7.542;2023-07-22T07:55:24;3.10;;;1.93;;
4754;SDS011;2391;47.212;7.542;2023-07-22T07:57:50;3.00;;;1.80;;
4754;SDS011;2391;47.212;7.542;2023-07-22T08:00:16;3.30;;;1.60;;
4754;SDS011;2391;47.212;7.542;2023-07-22T08:02:42;6.20;;;1.70;;
4754;SDS011;2391;47.212;7.542;2023-07-22T08:05:08;3.30;;;2.17;;
4754;SDS011;2391;47.212;7.542;2023-07-22T08:07:34;1.60;;;1.50;;
4754;SDS011;2391;47.212;7.542;2023-07-22T08:10:00;1.77;;;1.53;;
4754;SDS011;2391;47.212;7.542;2023-07-22T08:12:26;3.87;;;1.47;;
4754;SDS011;2391;47.212;7.542;2023-07-22T08:14:53;3.37;;;1.60;;
4754;SDS011;2391;47.212;7.542;2023-07-22T08:17:19;1.50;;;1.40;;
4754;SDS011;2391;47.212;7.542;2023-07-22T08:19:45;1.97;;;1.73;;
4754;SDS011;2391;47.212;7.542;2023-07-22T08:22:10;1.60;;;1.50;;
4754;SDS011;2391;47.212;7.542;2023-07-22T08:24:36;2.33;;;1.80;;
4754;SDS011;2391;47.212;7.542;2023-07-22T08:27:03;1.93;;;1.17;;
4754;SDS011;2391;47.212;7.542;2023-07-22T08:29:29;3.17;;;1.63;;
4754;SDS011;2391;47.212;7.542;2023-07-22T08:31:55;2.23;;;1.50;;
4754;SDS011;2391;47.212;7.542;2023-07-22T08:34:21;8.60;;;1.43;;
4754;SDS011;2391;47.212;7.542;2023-07-22T08:36:47;3.27;;;1.37;;
4754;SDS011;2391;47.212;7.542;2023-07-22T08:39:13;3.63;;;1.50;;
4754;SDS011;2391;47.212;7.542;2023-07-22T08:41:39;2.30;;;1.57;;
4754;SDS011;2391;47.212;7.542;2023-07-22T08:44:06;1.40;;;1.30;;
4754;SDS011;2391;47.212;7.542;2023-07-22T08:46:35;1.67;;;1.57;;
4754;SDS011;2391;47.212;7.542;2023-07-22T08:49:03;1.47;;;1.20;;
4754;SDS011;2391;47.212;7.542;2023-07-22T08:51:31;1.50;;;1.40;;
4754;SDS011;2391;47.212;7.542;2023-07-22T08:53:58;1.37;;;1.17;;
4754;SDS011;2391;47.212;7.542;2023-07-22T08:56:25;1.27;;;1.10;;
4754;SDS011;2391;47.212;7.542;2023-07-22T08:58:52;2.50;;;1.50;;
4754;SDS011;2391;47.212;7.542;2023-07-22T09:01:18;3.40;;;1.10;;
4754;SDS011;2391;47.212;7.542;2023-07-22T09:03:44;1.87;;;1.30;;
4754;SDS011;2391;47.212;7.542;2023-07-22T09:06:13;1.30;;;1.20;;
4754;SDS011;2391;47.212;7.542;2023-07-22T09:08:39;1.10;;;1.00;;
4754;SDS011;2391;47.212;7.542;2023-07-22T09:11:05;1.90;;;1.17;;
4754;SDS011;2391;47.212;7.542;2023-07-22T09:13:32;2.10;;;1.30;;
4754;SDS011;2391;47.212;7.542;2023-07-22T09:16:00;1.10;;;1.00;;
4754;SDS011;2391;47.212;7.542;2023-07-22T09:18:27;1.70;;;1.10;;
4754;SDS011;2391;47.212;7.542;2023-07-22T09:20:52;5.13;;;0.90;;
4754;SDS011;2391;47.212;7.542;2023-07-22T09:23:31;1.00;;;0.90;;
4754;SDS011;2391;47.212;7.542;2023-07-22T09:26:09;1.23;;;1.03;;
4754;SDS011;2391;47.212;7.542;2023-07-22T09:28:48;5.13;;;1.03;;
4754;SDS011;2391;47.212;7.542;2023-07-22T09:31:15;1.23;;;1.10;;
4754;SDS011;2391;47.212;7.542;2023-07-22T09:33:40;1.13;;;0.90;;
4754;SDS011;2391;47.212;7.542;2023-07-22T09:36:06;1.33;;;1.00;;
4754;SDS011;2391;47.212;7.542;2023-07-22T09:38:32;2.40;;;1.20;;
4754;SDS011;2391;47.212;7.542;2023-07-22T09:40:57;1.57;;;0.97;;
4754;SDS011;2391;47.212;7.542;2023-07-22T09:43:23;1.87;;;1.20;;
4754;SDS011;2391;47.212;7.542;2023-07-22T09:45:49;2.40;;;1.17;;
4754;SDS011;2391;47.212;7.542;2023-07-22T09:48:15;1.07;;;1.00;;
4754;SDS011;2391;47.212;7.542;2023-07-22T09:50:41;1.23;;;1.13;;
4754;SDS011;2391;47.212;7.542;2023-07-22T09:53:07;0.90;;;0.90;;
4754;SDS011;2391;47.212;7.542;2023-07-22T09:55:33;5.40;;;0.90;;
4754;SDS011;2391;47.212;7.542;2023-07-22T10:00:31;1.30;;;0.97;;
4754;SDS011;2391;47.212;7.542;2023-07-22T10:02:59;1.73;;;1.03;;
4754;SDS011;2391;47.212;7.542;2023-07-22T10:05:27;1.63;;;1.00;;
4754;SDS011;2391;47.212;7.542;2023-07-22T10:07:57;1.07;;;0.97;;
4754;SDS011;2391;47.212;7.542;2023-07-22T10:10:30;1.20;;;1.10;;
4754;SDS011;2391;47.212;7.542;2023-07-22T10:12:57;1.73;;;1.23;;
4754;SDS011;2391;47.212;7.542;2023-07-22T10:15:24;1.10;;;1.00;;
4754;SDS011;2391;47.212;7.542;2023-07-22T10:17:51;1.77;;;1.33;;
4754;SDS011;2391;47.212;7.542;2023-07-22T10:20:20;1.50;;;1.10;;
4754;SDS011;2391;47.212;7.542;2023-07-22T10:22:48;1.43;;;1.10;;
4754;SDS011;2391;47.212;7.542;2023-07-22T10:25:20;0.90;;;0.90;;
4754;SDS011;2391;47.212;7.542;2023-07-22T10:27:44;1.30;;;1.10;;
4754;SDS011;2391;47.212;7.542;2023-07-22T10:30:14;1.60;;;0.97;;
4754;SDS011;2391;47.212;7.542;2023-07-22T10:32:41;2.67;;;1.30;;
4754;SDS011;2391;47.212;7.542;2023-07-22T10:35:09;1.17;;;1.00;;
4754;SDS011;2391;47.212;7.542;2023-07-22T10:37:37;1.00;;;1.00;;
4754;SDS011;2391;47.212;7.542;2023-07-22T10:45:32;1.20;;;1.10;;
4754;SDS011;2391;47.212;7.542;2023-07-22T10:47:59;1.60;;;1.50;;
4754;SDS011;2391;47.212;7.542;2023-07-22T10:50:37;1.60;;;1.50;;
4754;SDS011;2391;47.212;7.542;2023-07-22T10:53:06;1.23;;;1.13;;
4754;SDS011;2391;47.212;7.542;2023-07-22T10:55:33;1.33;;;1.00;;
4754;SDS011;2391;47.212;7.542;2023-07-22T10:58:19;1.43;;;1.30;;
4754;SDS011;2391;47.212;7.542;2023-07-22T11:00:45;2.73;;;1.27;;
4754;SDS011;2391;47.212;7.542;2023-07-22T11:03:12;1.27;;;1.17;;
4754;SDS011;2391;47.212;7.542;2023-07-22T11:05:49;1.30;;;1.20;;
4754;SDS011;2391;47.212;7.542;2023-07-22T11:08:37;1.33;;;1.20;;
4754;SDS011;2391;47.212;7.542;2023-07-22T11:11:04;1.20;;;1.10;;
4754;SDS011;2391;47.212;7.542;2023-07-22T11:13:34;1.73;;;1.30;;
4754;SDS011;2391;47.212;7.542;2023-07-22T11:16:05;2.10;;;1.27;;
4754;SDS011;2391;47.212;7.542;2023-07-22T11:18:37;3.33;;;1.50;;
4754;SDS011;2391;47.212;7.542;2023-07-22T11:21:12;1.50;;;1.40;;
4754;SDS011;2391;47.212;7.542;2023-07-22T11:23:37;2.10;;;1.60;;
4754;SDS011;2391;47.212;7.542;2023-07-22T11:26:03;1.27;;;1.17;;
4754;SDS011;2391;47.212;7.542;2023-07-22T11:28:30;1.30;;;1.20;;
4754;SDS011;2391;47.212;7.542;2023-07-22T11:30:56;1.30;;;1.20;;
4754;SDS011;2391;47.212;7.542;2023-07-22T11:33:24;1.90;;;1.10;;
4754;SDS011;2391;47.212;7.542;2023-07-22T11:35:50;1.47;;;1.13;;
4754;SDS011;2391;47.212;7.542;2023-07-22T11:38:16;2.40;;;1.10;;
4754;SDS011;2391;47.212;7.542;2023-07-22T11:40:41;1.97;;;1.20;;
4754;SDS011;2391;47.212;7.542;2023-07-22T11:43:07;1.43;;;1.33;;
4754;SDS011;2391;47.212;7.542;2023-07-22T11:45:33;1.40;;;1.10;;
4754;SDS011;2391;47.212;7.542;2023-07-22T11:47:59;1.23;;;1.13;;
4754;SDS011;2391;47.212;7.542;2023-07-22T11:50:34;1.93;;;1.40;;
4754;SDS011;2391;47.212;7.542;2023-07-22T11:53:00;1.23;;;1.13;;
4754;SDS011;2391;47.212;7.542;2023-07-22T11:55:26;2.20;;;1.27;;
4754;SDS011;2391;47.212;7.542;2023-07-22T11:57:52;1.87;;;1.40;;
4754;SDS011;2391;47.212;7.542;2023-07-22T12:00:19;1.40;;;1.30;;
4754;SDS011;2391;47.212;7.542;2023-07-22T12:02:45;2.37;;;1.60;;
4754;SDS011;2391;47.212;7.542;2023-07-22T12:05:11;1.40;;;1.30;;
4754;SDS011;2391;47.212;7.542;2023-07-22T12:07:37;1.87;;;1.20;;
4754;SDS011;2391;47.212;7.542;2023-07-22T12:10:05;1.80;;;1.50;;
4754;SDS011;2391;47.212;7.542;2023-07-22T12:12:35;2.97;;;1.23;;
4754;SDS011;2391;47.212;7.542;2023-07-22T12:15:09;1.93;;;1.30;;
4754;SDS011;2391;47.212;7.542;2023-07-22T12:20:24;1.63;;;1.53;;
4754;SDS011;2391;47.212;7.542;2023-07-22T12:22:55;1.63;;;1.50;;
4754;SDS011;2391;47.212;7.542;2023-07-22T12:25:22;1.50;;;1.40;;
4754;SDS011;2391;47.212;7.542;2023-07-22T12:27:48;2.63;;;1.50;;
4754;SDS011;2391;47.212;7.542;2023-07-22T12:30:15;7.23;;;1.40;;
4754;SDS011;2391;47.212;7.542;2023-07-22T12:32:41;1.43;;;1.20;;
4754;SDS011;2391;47.212;7.542;2023-07-22T12:35:07;2.83;;;1.50;;
4754;SDS011;2391;47.212;7.542;2023-07-22T12:37:34;1.30;;;1.20;;
4754;SDS011;2391;47.212;7.542;2023-07-22T12:40:00;1.63;;;1.30;;
4754;SDS011;2391;47.212;7.542;2023-07-22T12:42:25;2.03;;;1.30;;
4754;SDS011;2391;47.212;7.542;2023-07-22T12:44:51;1.30;;;1.20;;
4754;SDS011;2391;47.212;7.542;2023-07-22T12:47:18;1.23;;;1.13;;
4754;SDS011;2391;47.212;7.542;2023-07-22T12:49:43;2.30;;;1.20;;
4754;SDS011;2391;47.212;7.542;2023-07-22T12:52:09;1.27;;;1.17;;
4754;SDS011;2391;47.212;7.542;2023-07-22T12:54:36;2.70;;;1.50;;
4754;SDS011;2391;47.212;7.542;2023-07-22T12:57:02;1.73;;;1.03;;
4754;SDS011;2391;47.212;7.542;2023-07-22T12:59:27;1.57;;;1.47;;
4754;SDS011;2391;47.212;7.542;2023-07-22T13:01:53;3.27;;;1.30;;
4754;SDS011;2391;47.212;7.542;2023-07-22T13:04:19;9.00;;;1.30;;
4754;SDS011;2391;47.212;7.542;2023-07-22T13:06:45;1.47;;;1.30;;
4754;SDS011;2391;47.212;7.542;2023-07-22T13:09:11;1.63;;;1.27;;
4754;SDS011;2391;47.212;7.542;2023-07-22T13:11:36;1.30;;;1.10;;
4754;SDS011;2391;47.212;7.542;2023-07-22T13:14:02;1.67;;;1.57;;
4754;SDS011;2391;47.212;7.542;2023-07-22T13:16:28;1.50;;;1.40;;
4754;SDS011;2391;47.212;7.542;2023-07-22T13:18:54;1.60;;;1.40;;
4754;SDS011;2391;47.212;7.542;2023-07-22T13:21:20;1.57;;;1.37;;
4754;SDS011;2391;47.212;7.542;2023-07-22T13:23:46;1.73;;;1.50;;
4754;SDS011;2391;47.212;7.542;2023-07-22T13:26:11;2.00;;;1.50;;
4754;SDS011;2391;47.212;7.542;2023-07-22T13:28:37;2.90;;;1.47;;
4754;SDS011;2391;47.212;7.542;2023-07-22T13:31:03;1.60;;;1.27;;
4754;SDS011;2391;47.212;7.542;2023-07-22T13:33:28;1.97;;;1.20;;
4754;SDS011;2391;47.212;7.542;2023-07-22T13:35:54;1.57;;;1.47;;
4754;SDS011;2391;47.212;7.542;2023-07-22T13:38:20;1.67;;;1.20;;
4754;SDS011;2391;47.212;7.542;2023-07-22T13:40:46;2.90;;;1.30;;
4754;SDS011;2391;47.212;7.542;2023-07-22T13:43:12;1.70;;;1.60;;
4754;SDS011;2391;47.212;7.542;2023-07-22T13:45:37;2.00;;;1.83;;
4754;SDS011;2391;47.212;7.542;2023-07-22T13:48:03;8.67;;;1.30;;
4754;SDS011;2391;47.212;7.542;2023-07-22T13:50:30;1.70;;;1.60;;
4754;SDS011;2391;47.212;7.542;2023-07-22T13:52:56;1.80;;;1.50;;
4754;SDS011;2391;47.212;7.542;2023-07-22T13:55:21;2.67;;;1.43;;
4754;SDS011;2391;47.212;7.542;2023-07-22T13:57:47;1.63;;;1.10;;
4754;SDS011;2391;47.212;7.542;2023-07-22T14:00:13;1.70;;;1.60;;
4754;SDS011;2391;47.212;7.542;2023-07-22T14:02:40;3.90;;;1.10;;
4754;SDS011;2391;47.212;7.542;2023-07-22T14:05:07;1.27;;;1.17;;
4754;SDS011;2391;47.212;7.542;2023-07-22T14:07:34;1.47;;;1.20;;
4754;SDS011;2391;47.212;7.542;2023-07-22T14:10:00;2.90;;;1.10;;
4754;SDS011;2391;47.212;7.542;2023-07-22T14:12:26;1.67;;;1.20;;
4754;SDS011;2391;47.212;7.542;2023-07-22T14:14:52;1.40;;;1.30;;
4754;SDS011;2391;47.212;7.542;2023-07-22T14:17:18;1.67;;;1.57;;
4754;SDS011;2391;47.212;7.542;2023-07-22T14:19:43;1.43;;;1.33;;
4754;SDS011;2391;47.212;7.542;2023-07-22T14:22:09;3.73;;;1.23;;
4754;SDS011;2391;47.212;7.542;2023-07-22T14:24:35;2.00;;;1.20;;
4754;SDS011;2391;47.212;7.542;2023-07-22T14:27:01;1.50;;;1.40;;
4754;SDS011;2391;47.212;7.542;2023-07-22T14:29:26;1.50;;;1.17;;
4754;SDS011;2391;47.212;7.542;2023-07-22T14:31:52;2.10;;;1.33;;
4754;SDS011;2391;47.212;7.542;2023-07-22T14:34:20;1.37;;;1.27;;
4754;SDS011;2391;47.212;7.542;2023-07-22T14:36:45;1.20;;;1.10;;
4754;SDS011;2391;47.212;7.542;2023-07-22T14:39:11;9.00;;;1.20;;
4754;SDS011;2391;47.212;7.542;2023-07-22T14:41:37;1.37;;;1.23;;
4754;SDS011;2391;47.212;7.542;2023-07-22T14:44:03;3.00;;;1.10;;
4754;SDS011;2391;47.212;7.542;2023-07-22T14:46:28;1.80;;;1.70;;
4754;SDS011;2391;47.212;7.542;2023-07-22T14:48:54;1.73;;;1.40;;
4754;SDS011;2391;47.212;7.542;2023-07-22T14:51:20;1.27;;;1.17;;
4754;SDS011;2391;47.212;7.542;2023-07-22T14:53:46;1.40;;;1.30;;
4754;SDS011;2391;47.212;7.542;2023-07-22T14:56:11;2.87;;;1.37;;
4754;SDS011;2391;47.212;7.542;2023-07-22T14:58:37;1.20;;;1.10;;
4754;SDS011;2391;47.212;7.542;2023-07-22T15:01:03;1.80;;;1.30;;
4754;SDS011;2391;47.212;7.542;2023-07-22T15:03:29;1.10;;;1.00;;
4754;SDS011;2391;47.212;7.542;2023-07-22T15:05:55;1.10;;;1.03;;
4754;SDS011;2391;47.212;7.542;2023-07-22T15:08:20;2.10;;;2.00;;
4754;SDS011;2391;47.212;7.542;2023-07-22T15:10:46;2.70;;;2.50;;
4754;SDS011;2391;47.212;7.542;2023-07-22T15:13:12;5.57;;;4.63;;
4754;SDS011;2391;47.212;7.542;2023-07-22T15:15:38;2.37;;;2.27;;
4754;SDS011;2391;47.212;7.542;2023-07-22T15:18:03;1.23;;;1.13;;
4754;SDS011;2391;47.212;7.542;2023-07-22T15:20:29;3.37;;;2.10;;
4754;SDS011;2391;47.212;7.542;2023-07-22T15:22:55;2.43;;;2.10;;
4754;SDS011;2391;47.212;7.542;2023-07-22T15:25:20;1.53;;;1.40;;